Time;durP1;ratioP1;P1;durP2;ratioP2;P2;SDS_P1;SDS_P2;PMS_P1;PMS_P2;Temp;Humidity;BMP_temperature;BMP_pressure;BME280_temperature;BME280_humidity;BME280_pressure;Samples;Min_cycle;Max_cycle;Signal;HPM_P1;HPM_P2
2022/02/08 00:03:49;;;;;;;27.80;8.50;;;;;;;3.83;64.01;99161.28;220358;1280;138723;-57
2022/02/08 00:08:52;;;;;;;20.50;6.00;;;;;;;3.82;63.89;99168.49;220164;1280;139152;-58
2022/02/08 00:13:55;;;;;;;21.80;6.00;;;;;;;3.77;63.86;99168.80;220106;1281;140465;-56
2022/02/08 00:18:59;;;;;;;22.60;5.90;;;;;;;3.71;63.76;99169.54;220054;1281;139028;-56
2022/02/08 00:24:02;;;;;;;21.30;5.80;;;;;;;3.67;63.95;99170.19;220814;1279;138963;-57
2022/02/08 00:29:05;;;;;;;18.60;5.70;;;;;;;3.66;63.95;99173.20;220551;1280;138576;-56
2022/02/08 00:34:08;;;;;;;20.70;5.70;;;;;;;3.69;64.29;99180.14;220205;1280;139227;-55
2022/02/08 00:39:12;;;;;;;19.90;5.70;;;;;;;3.76;64.33;99184.30;220448;1279;138716;-53
2022/02/08 00:44:20;;;;;;;21.00;5.20;;;;;;;3.82;64.37;99189.91;220337;1280;139853;-52
2022/02/08 00:49:30;;;;;;;22.30;5.00;;;;;;;3.81;64.21;99195.38;220379;1280;138718;-54
2022/02/08 00:54:33;;;;;;;19.00;5.30;;;;;;;3.78;63.96;99198.95;220477;1280;139411;-53
2022/02/08 00:59:36;;;;;;;23.90;5.20;;;;;;;3.77;64.25;99207.79;220862;1280;139165;-55
2022/02/08 01:04:42;;;;;;;15.80;4.60;;;;;;;3.75;64.12;99208.19;220031;1282;139911;-56
2022/02/08 01:09:52;;;;;;;15.60;4.60;;;;;;;3.79;63.99;99220.87;220081;1280;139375;-58
2022/02/08 01:14:56;;;;;;;20.30;4.90;;;;;;;3.89;64.45;99223.89;220510;1279;138463;-57
2022/02/08 01:20:10;;;;;;;16.10;4.40;;;;;;;3.85;64.12;99226.98;220438;1280;140079;-57
2022/02/08 01:25:20;;;;;;;15.90;4.30;;;;;;;3.80;64.11;99230.67;220530;1280;138907;-56
2022/02/08 01:30:42;;;;;;;19.10;4.50;;;;;;;3.80;64.43;99228.91;220308;1279;139066;-58
2022/02/08 01:35:58;;;;;;;17.00;4.60;;;;;;;3.83;64.45;99231.27;220791;1279;139143;-56
2022/02/08 01:41:23;;;;;;;19.70;4.70;;;;;;;3.83;64.45;99240.39;220421;1280;139991;-61
2022/02/08 01:46:34;;;;;;;13.10;4.00;;;;;;;3.90;64.40;99245.64;220355;1280;139459;-58
2022/02/08 01:51:38;;;;;;;20.70;4.00;;;;;;;3.97;64.56;99251.55;220352;1280;139613;-58
2022/02/08 01:56:42;;;;;;;20.30;4.50;;;;;;;3.98;64.34;99258.02;220873;1279;138203;-58
2022/02/08 02:01:45;;;;;;;17.30;4.90;;;;;;;3.93;64.25;99266.41;220686;1280;138768;-59
2022/02/08 02:06:49;;;;;;;23.30;4.30;;;;;;;3.86;64.22;99273.30;220704;1280;139075;-59
2022/02/08 02:11:59;;;;;;;16.90;4.70;;;;;;;3.89;64.46;99279.19;220830;1280;138485;-58
2022/02/08 02:17:03;;;;;;;20.30;4.60;;;;;;;3.87;64.59;99285.02;220440;1280;150988;-59
2022/02/08 02:22:08;;;;;;;14.50;4.20;;;;;;;3.85;64.63;99287.73;220640;1279;139243;-58
2022/02/08 02:27:12;;;;;;;18.60;4.40;;;;;;;3.84;64.66;99295.11;220465;1280;138912;-59
2022/02/08 02:32:16;;;;;;;15.30;3.80;;;;;;;3.86;64.74;99307.35;220729;1279;141400;-59
2022/02/08 02:37:22;;;;;;;13.80;3.60;;;;;;;3.88;64.77;99312.38;220156;1281;140305;-59
2022/02/08 02:42:30;;;;;;;16.00;3.60;;;;;;;3.88;64.68;99312.20;220442;1280;138756;-58
2022/02/08 02:47:36;;;;;;;16.90;4.00;;;;;;;3.87;64.78;99319.60;220702;1278;138733;-59
2022/02/08 02:52:40;;;;;;;20.50;4.60;;;;;;;3.84;64.86;99325.13;220519;1280;138260;-59
2022/02/08 02:57:49;;;;;;;16.90;4.20;;;;;;;3.82;64.97;99336.60;219720;1282;138564;-57
2022/02/08 03:03:04;;;;;;;16.90;4.40;;;;;;;3.82;65.05;99351.16;220391;1280;139438;-56
2022/02/08 03:18:51;;;;;;;16.20;4.20;;;;;;;3.67;65.47;99379.14;220458;1280;138628;-54
2022/02/08 03:23:55;;;;;;;18.20;3.90;;;;;;;3.70;65.52;99380.46;220651;1280;139145;-56
2022/02/08 03:28:59;;;;;;;13.40;4.00;;;;;;;3.73;65.62;99389.68;220465;1280;139993;-57
2022/02/08 03:34:06;;;;;;;15.40;3.70;;;;;;;3.69;65.61;99393.64;220466;1280;139171;-62
2022/02/08 03:39:18;;;;;;;18.20;4.10;;;;;;;3.70;65.61;99401.88;220455;1280;138526;-60
2022/02/08 03:44:49;;;;;;;17.60;3.70;;;;;;;3.72;65.48;99407.60;220044;1281;139390;-60
2022/02/08 03:49:53;;;;;;;15.30;4.20;;;;;;;3.73;65.70;99416.36;220347;1280;139536;-56
2022/02/08 03:54:58;;;;;;;13.60;3.80;;;;;;;3.73;65.66;99425.65;220687;1280;138254;-56
2022/02/08 04:00:04;;;;;;;15.60;3.80;;;;;;;3.75;66.06;99430.66;219900;1282;140631;-56
2022/02/08 04:05:28;;;;;;;18.80;4.30;;;;;;;3.74;65.84;99437.55;220147;1280;139275;-57
2022/02/08 04:10:31;;;;;;;20.40;4.40;;;;;;;3.72;65.95;99449.36;220172;1280;138423;-58
2022/02/08 04:32:00;;;;;;;19.70;4.30;;;;;;;3.75;66.05;99480.87;220429;1280;140400;-58
2022/02/08 04:42:12;;;;;;;23.50;4.90;;;;;;;3.76;65.90;99497.31;220398;1281;138560;-57
2022/02/08 04:47:31;;;;;;;14.00;4.10;;;;;;;3.72;65.83;99505.70;220458;1280;154379;-57
2022/02/08 04:52:34;;;;;;;12.90;4.00;;;;;;;3.72;65.82;99514.82;220447;1280;139420;-59
2022/02/08 05:55:28;;;;;;;17.40;4.40;;;;;;;3.84;65.82;99577.16;220199;1281;139034;-58
2022/02/08 06:00:31;;;;;;;12.10;3.60;;;;;;;3.80;65.70;99583.92;220420;1280;139228;-59
2022/02/08 06:05:42;;;;;;;14.80;3.70;;;;;;;3.78;65.87;99588.70;220259;1281;139216;-56
2022/02/08 06:10:52;;;;;;;15.40;3.90;;;;;;;3.80;65.80;99595.33;220376;1281;139670;-57
2022/02/08 06:16:02;;;;;;;14.80;4.30;;;;;;;3.82;65.59;99593.37;220576;1280;138886;-56
2022/02/08 06:21:05;;;;;;;15.70;4.40;;;;;;;3.82;65.54;99600.56;220703;1280;140221;-58
2022/02/08 06:26:08;;;;;;;26.40;9.80;;;;;;;3.80;65.71;99598.67;220757;1279;139158;-57
2022/02/08 06:31:11;;;;;;;23.20;5.00;;;;;;;3.79;65.58;99612.36;220663;1279;138392;-58
2022/02/08 06:36:19;;;;;;;16.70;3.60;;;;;;;3.81;65.62;99621.27;220515;1281;140212;-57
2022/02/08 06:41:22;;;;;;;12.50;3.60;;;;;;;3.87;65.64;99626.75;220663;1280;139112;-59
2022/02/08 06:46:25;;;;;;;20.60;3.80;;;;;;;3.92;65.43;99631.37;220571;1280;139485;-57
2022/02/08 06:51:28;;;;;;;20.90;4.20;;;;;;;3.93;65.34;99640.81;220448;1280;139011;-59
2022/02/08 06:56:32;;;;;;;16.60;4.20;;;;;;;3.89;65.29;99647.59;220405;1280;139100;-58
2022/02/08 07:01:37;;;;;;;19.80;4.60;;;;;;;3.83;65.42;99655.46;220565;1280;138871;-58
2022/02/08 07:06:49;;;;;;;15.80;4.00;;;;;;;3.79;65.50;99671.36;220767;1280;138796;-58
2022/02/08 07:11:56;;;;;;;18.10;3.90;;;;;;;3.83;65.39;99675.80;220535;1280;139680;-58
2022/02/08 07:16:59;;;;;;;19.40;4.30;;;;;;;3.91;65.37;99683.36;220327;1280;139126;-57
2022/02/08 07:22:02;;;;;;;11.00;3.80;;;;;;;3.98;65.52;99678.09;220858;1280;139787;-57
2022/02/08 07:27:05;;;;;;;18.20;4.10;;;;;;;4.03;65.20;99681.46;220558;1279;138787;-58
2022/02/08 07:32:08;;;;;;;21.70;4.10;;;;;;;4.07;65.11;99686.13;220212;1280;141578;-58
2022/02/08 07:37:18;;;;;;;18.30;4.90;;;;;;;4.08;65.10;99688.20;220503;1280;138851;-58
2022/02/08 07:42:21;;;;;;;15.40;4.70;;;;;;;4.11;65.29;99695.13;220513;1280;139102;-59
2022/02/08 07:47:24;;;;;;;16.00;3.90;;;;;;;4.20;65.42;99691.92;220691;1280;138870;-59
2022/02/08 07:52:27;;;;;;;15.50;4.00;;;;;;;4.23;65.12;99696.58;220758;1279;138863;-57
2022/02/08 07:57:30;;;;;;;13.30;4.00;;;;;;;4.31;64.99;99695.14;220664;1280;139041;-57
2022/02/08 08:02:38;;;;;;;14.20;4.40;;;;;;;4.41;65.06;99701.20;220578;1279;141374;-59
2022/02/08 08:07:41;;;;;;;16.80;4.10;;;;;;;4.49;64.98;99704.70;220754;1280;139215;-57
2022/02/08 08:12:51;;;;;;;22.00;4.80;;;;;;;4.53;64.83;99708.10;220533;1280;139582;-59
2022/02/08 08:17:59;;;;;;;18.30;5.10;;;;;;;4.59;64.83;99702.84;220308;1280;138778;-58
2022/02/08 08:23:02;;;;;;;18.30;5.00;;;;;;;4.61;64.61;99706.83;220658;1280;138673;-57
2022/02/08 08:28:07;;;;;;;20.60;4.90;;;;;;;4.56;64.35;99712.07;220395;1280;139047;-56
2022/02/08 08:33:10;;;;;;;19.60;4.60;;;;;;;4.47;64.33;99713.01;220620;1279;139778;-58
2022/02/08 08:38:34;;;;;;;13.50;4.00;;;;;;;4.49;64.49;99708.73;220569;1280;138505;-59
2022/02/08 08:53:59;;;;;;;21.10;5.50;;;;;;;4.54;64.37;99691.38;220664;1279;139378;-58
2022/02/08 08:59:08;;;;;;;23.10;5.00;;;;;;;4.62;64.30;99683.79;220519;1279;139696;-57
2022/02/08 09:04:11;;;;;;;19.50;4.80;;;;;;;4.69;64.41;99673.02;220372;1280;139084;-59
2022/02/08 09:09:17;;;;;;;19.10;4.50;;;;;;;4.73;64.15;99667.66;220456;1280;138863;-59
2022/02/08 09:14:34;;;;;;;17.40;4.80;;;;;;;4.76;63.91;99671.77;220417;1279;139661;-59
2022/02/08 09:25:41;;;;;;;19.50;4.80;;;;;;;4.80;63.83;99671.31;220610;1280;139885;-59
2022/02/08 09:30:39;;;;;;;19.20;4.60;;;;;;;4.85;63.81;99670.13;220384;1281;139830;-59
2022/02/08 09:35:43;;;;;;;20.20;5.20;;;;;;;4.90;63.43;99679.30;220296;1280;139203;-59
2022/02/08 09:40:47;;;;;;;18.40;4.80;;;;;;;4.96;63.16;99681.59;220254;1280;141937;-59
2022/02/08 09:45:51;;;;;;;20.60;4.90;;;;;;;5.02;63.04;99685.98;220576;1280;138920;-56
2022/02/08 09:50:55;;;;;;;16.70;5.10;;;;;;;5.05;62.84;99682.06;220603;1279;138371;-57
2022/02/08 09:55:59;;;;;;;14.20;3.80;;;;;;;5.11;62.73;99680.11;220309;1280;139022;-60
2022/02/08 10:01:05;;;;;;;14.70;4.30;;;;;;;5.14;62.51;99680.89;220683;1280;138632;-56
2022/02/08 10:06:10;;;;;;;19.30;4.80;;;;;;;5.15;62.32;99672.76;220718;1280;142344;-56
2022/02/08 10:11:24;;;;;;;17.10;4.90;;;;;;;5.15;62.27;99662.92;220512;1280;139153;-57
2022/02/08 10:21:49;;;;;;;15.70;4.50;;;;;;;5.17;61.94;99654.58;220107;1280;139134;-58
2022/02/08 10:42:30;;;;;;;52.70;22.40;;;;;;;5.43;62.19;99617.37;220591;1279;139425;-58
2022/02/08 10:47:36;;;;;;;20.40;5.20;;;;;;;5.57;62.03;99614.30;220311;1280;139197;-58
2022/02/08 10:52:42;;;;;;;16.80;3.50;;;;;;;5.62;61.80;99611.65;220473;1280;139344;-56
2022/02/08 11:03:16;;;;;;;17.70;3.50;;;;;;;5.67;61.49;99618.89;220020;1280;140098;-59
2022/02/08 11:13:40;;;;;;;12.00;3.00;;;;;;;5.61;61.34;99627.16;220591;1280;138541;-58
2022/02/08 11:19:07;;;;;;;9.40;2.80;;;;;;;5.63;61.28;99620.07;220280;1280;138954;-58
2022/02/08 11:24:42;;;;;;;13.60;3.40;;;;;;;5.70;61.21;99601.36;220716;1280;138683;-57
2022/02/08 11:30:03;;;;;;;13.20;5.30;;;;;;;5.83;61.35;99590.38;220753;1279;138500;-58
2022/02/08 11:51:50;;;;;;;20.00;5.10;;;;;;;6.10;60.80;99560.77;220666;1278;140437;-59
2022/02/08 12:07:36;;;;;;;21.20;5.00;;;;;;;6.06;60.34;99535.55;220639;1280;139911;-57
2022/02/08 13:01:12;;;;;;;9.70;2.90;;;;;;;6.19;58.89;99463.73;220695;1279;138627;-59
2022/02/08 14:05:57;;;;;;;12.60;3.60;;;;;;;6.42;57.97;99417.38;221210;1279;138895;-58
2022/02/08 14:21:38;;;;;;;11.90;4.10;;;;;;;6.20;57.66;99400.61;220791;1278;139209;-58
2022/02/08 14:32:22;;;;;;;11.40;3.90;;;;;;;6.07;57.60;99406.73;221165;1279;138689;-57
2022/02/08 15:09:31;;;;;;;11.10;4.10;;;;;;;5.53;58.64;99417.32;221076;1278;139576;-58
2022/02/08 15:14:46;;;;;;;9.50;4.10;;;;;;;5.47;58.95;99419.28;220939;1279;139064;-58
2022/02/08 15:19:50;;;;;;;10.30;3.70;;;;;;;5.37;59.38;99417.33;220440;1281;139635;-61
2022/02/08 15:24:54;;;;;;;9.00;4.30;;;;;;;5.31;59.88;99410.86;220348;1280;138339;-58
2022/02/08 15:29:57;;;;;;;13.60;5.00;;;;;;;5.29;60.17;99416.92;221068;1280;138992;-57
2022/02/08 15:35:04;;;;;;;12.20;5.10;;;;;;;5.25;60.38;99414.23;220991;1278;138663;-60
2022/02/08 15:40:10;;;;;;;16.00;5.20;;;;;;;5.21;60.44;99404.67;221214;1278;138076;-58
2022/02/08 15:50:56;;;;;;;14.60;5.80;;;;;;;5.26;60.71;99395.55;220775;1279;138354;-62
2022/02/08 16:01:08;;;;;;;14.90;5.20;;;;;;;5.14;61.03;99393.14;221150;1278;139355;-58
2022/02/08 16:11:58;;;;;;;13.30;5.30;;;;;;;5.14;61.97;99380.48;221233;1279;138554;-58
2022/02/08 16:17:17;;;;;;;12.80;5.40;;;;;;;5.12;61.94;99383.73;220979;1279;139019;-60
2022/02/08 16:22:43;;;;;;;13.90;5.60;;;;;;;5.09;62.15;99376.45;221231;1278;138574;-58
2022/02/08 16:59:11;;;;;;;14.00;6.20;;;;;;;5.09;63.42;99396.16;221062;1279;138690;-57
2022/02/08 17:04:14;;;;;;;13.10;5.80;;;;;;;5.02;63.57;99392.70;221211;1278;139413;-58
2022/02/08 17:10:14;;;;;;;15.80;6.30;;;;;;;4.94;63.72;99384.52;221097;1278;139085;-58
2022/02/08 17:46:36;;;;;;;14.00;6.20;;;;;;;4.85;65.66;99366.18;221088;1280;139713;-61
2022/02/08 17:51:39;;;;;;;14.70;6.40;;;;;;;4.88;65.95;99379.27;221133;1280;139456;-59
2022/02/08 17:56:48;;;;;;;15.80;7.50;;;;;;;4.90;66.11;99377.77;220930;1280;138918;-58
2022/02/08 18:01:52;;;;;;;15.90;7.00;;;;;;;4.87;66.23;99375.59;221248;1279;138586;-58
2022/02/08 18:06:55;;;;;;;11.70;5.90;;;;;;;4.79;66.47;99381.68;221575;1277;139108;-58
2022/02/08 18:12:00;;;;;;;12.80;6.60;;;;;;;4.75;66.96;99375.84;221631;1277;138785;-61
2022/02/08 18:17:11;;;;;;;12.90;5.90;;;;;;;4.73;67.06;99370.27;221295;1276;138762;-58
2022/02/08 19:05:19;;;;;;;11.10;5.80;;;;;;;4.88;69.23;99385.23;221380;1276;125314;-58
2022/02/08 19:20:35;;;;;;;12.40;5.10;;;;;;;4.90;70.00;99382.51;221442;1277;139578;-61
2022/02/08 19:25:38;;;;;;;57.90;35.20;;;;;;;5.02;70.25;99393.39;221292;1277;139846;-59
2022/02/08 19:30:41;;;;;;;11.30;6.50;;;;;;;5.27;70.68;99396.58;221202;1277;138907;-60
2022/02/08 19:35:44;;;;;;;9.20;5.50;;;;;;;5.31;70.53;99403.64;221490;1276;138669;-59
2022/02/08 19:40:47;;;;;;;9.30;4.90;;;;;;;5.29;70.36;99409.18;221419;1277;138776;-59
2022/02/08 19:45:52;;;;;;;11.40;6.00;;;;;;;5.28;70.30;99413.79;221296;1277;138965;-59
2022/02/08 19:50:55;;;;;;;7.90;4.50;;;;;;;5.31;70.70;99418.95;221424;1277;138856;-57
2022/02/08 20:01:29;;;;;;;8.00;5.20;;;;;;;5.34;70.67;99425.54;221291;1277;138857;-58
2022/02/08 20:06:34;;;;;;;8.30;5.10;;;;;;;5.35;70.73;99424.42;220872;1277;139646;-58
2022/02/08 20:11:38;;;;;;;90.80;54.50;;;;;;;5.43;71.04;99426.30;220607;1278;138815;-58
2022/02/08 20:16:41;;;;;;;8.90;5.40;;;;;;;5.64;71.72;99425.55;220579;1278;139745;-58
2022/02/08 20:21:45;;;;;;;8.30;5.50;;;;;;;5.63;70.80;99415.37;220700;1277;139094;-59
2022/02/08 20:32:00;;;;;;;7.70;5.50;;;;;;;5.52;71.00;99440.04;220446;1281;248988;-61
2022/02/08 20:37:03;;;;;;;10.20;5.50;;;;;;;5.55;71.03;99441.70;220678;1277;139875;-58
2022/02/08 20:42:07;;;;;;;10.90;6.20;;;;;;;5.54;71.11;99444.04;220844;1277;140097;-60
2022/02/08 20:47:25;;;;;;;8.80;5.90;;;;;;;5.51;71.40;99443.98;221043;1277;139286;-57
2022/02/08 20:52:29;;;;;;;8.90;5.50;;;;;;;5.51;71.55;99451.19;220943;1277;138872;-57
2022/02/08 20:57:36;;;;;;;9.10;5.70;;;;;;;5.53;71.54;99442.84;220926;1277;139658;-57
2022/02/08 21:02:53;;;;;;;9.70;5.90;;;;;;;5.57;71.94;99441.63;221132;1277;138412;-57
2022/02/08 21:07:56;;;;;;;9.20;5.30;;;;;;;5.55;71.72;99441.02;220910;1277;138962;-57
2022/02/08 21:18:03;;;;;;;11.30;7.10;;;;;;;5.59;72.07;99443.13;220852;1277;138812;-57
2022/02/08 21:23:06;;;;;;;9.30;5.40;;;;;;;5.62;72.25;99456.25;221142;1277;139376;-57
2022/02/08 21:28:11;;;;;;;8.50;6.30;;;;;;;5.66;72.28;99457.87;221138;1277;140002;-55
2022/02/08 21:49:20;;;;;;;8.40;5.60;;;;;;;5.77;72.53;99463.79;221130;1277;139383;-59
2022/02/08 21:54:33;;;;;;;53.00;28.60;;;;;;;5.81;72.74;99465.23;220863;1277;139131;-57
2022/02/08 21:59:37;;;;;;;16.00;7.90;;;;;;;5.87;72.62;99474.17;220685;1277;138930;-58
2022/02/08 22:04:40;;;;;;;11.40;6.60;;;;;;;5.88;72.89;99482.23;220754;1277;139287;-58
2022/02/08 22:09:54;;;;;;;11.10;6.50;;;;;;;5.92;72.76;99490.41;220746;1279;139236;-57
2022/02/08 22:30:49;;;;;;;9.20;6.10;;;;;;;5.98;72.88;99504.30;220649;1279;139818;-58
2022/02/08 22:36:00;;;;;;;11.70;7.00;;;;;;;6.02;72.89;99506.78;220686;1280;138741;-57
2022/02/08 22:41:13;;;;;;;12.30;7.20;;;;;;;6.07;72.91;99513.64;220942;1277;139742;-58
2022/02/08 22:46:16;;;;;;;11.20;6.80;;;;;;;6.14;73.06;99521.84;220991;1277;139184;-59
2022/02/08 22:51:19;;;;;;;12.10;7.00;;;;;;;6.18;72.90;99519.95;221093;1277;140018;-60
2022/02/08 22:56:22;;;;;;;11.20;6.30;;;;;;;6.24;72.85;99526.95;220327;1279;139400;-59
2022/02/08 23:01:26;;;;;;;14.90;7.30;;;;;;;6.25;72.80;99523.59;220785;1277;140094;-58
2022/02/08 23:06:30;;;;;;;11.60;7.60;;;;;;;6.24;72.71;99532.41;220769;1277;139382;-58
2022/02/08 23:36:54;;;;;;;12.50;8.10;;;;;;;6.22;72.73;99538.69;220754;1277;139506;-57
2022/02/08 23:38:29;;;;;;;14.80;8.90;;;;;;;6.37;72.96;99565.08;220862;1277;140159;-57
2022/02/08 23:43:34;;;;;;;12.60;8.60;;;;;;;6.43;73.16;99569.79;220722;1277;140497;-58
2022/02/08 23:48:59;;;;;;;13.00;8.60;;;;;;;6.47;73.21;99579.89;220856;1277;139111;-58
2022/02/08 23:54:06;;;;;;;12.60;7.20;;;;;;;6.44;73.20;99584.91;220819;1277;139126;-58
2022/02/08 23:59:12;;;;;;;13.80;8.40;;;;;;;6.40;72.97;99592.63;220825;1277;139399;-59
